createdAt,value
2023-03-17T00:00:21.925Z,6.4
2023-03-17T00:02:50.181Z,6.4
2023-03-17T00:05:18.445Z,6.3
2023-03-17T00:07:46.694Z,6.3
2023-03-17T00:10:14.955Z,6.3
2023-03-17T00:12:43.215Z,6.2
2023-03-17T00:15:11.465Z,6.2
2023-03-17T00:17:39.727Z,6.3
2023-03-17T00:21:22.712Z,6.2
2023-03-17T00:22:36.261Z,6.1
2023-03-17T00:25:04.518Z,6.2
2023-03-17T00:27:32.768Z,6.3
2023-03-17T00:30:01.027Z,6.3
2023-03-17T00:32:29.289Z,6.3
2023-03-17T00:34:57.539Z,6.3
2023-03-17T00:37:25.798Z,6.2
2023-03-17T00:39:54.058Z,6.3
2023-03-17T00:42:22.316Z,6.2
2023-03-17T00:44:50.568Z,6.2
2023-03-17T00:46:05.298Z,6.3
2023-03-17T00:47:18.850Z,6.3
2023-03-17T00:52:15.363Z,6.3
2023-03-17T00:54:43.617Z,6.3
2023-03-17T00:57:11.869Z,6.2
2023-03-17T00:59:40.133Z,6.3
2023-03-17T01:02:08.383Z,6.3
2023-03-17T01:04:36.641Z,6.3
2023-03-17T01:07:04.908Z,6.4
2023-03-17T01:09:33.153Z,6.4
2023-03-17T01:10:47.887Z,6.3
2023-03-17T01:12:01.436Z,6.4
2023-03-17T01:14:29.693Z,6.3
2023-03-17T01:16:57.947Z,6.3
2023-03-17T01:19:26.205Z,6.3
2023-03-17T01:24:22.715Z,6.2
2023-03-17T01:26:50.970Z,6.1
2023-03-17T01:29:19.226Z,6.1
2023-03-17T01:31:47.489Z,6.1
2023-03-17T01:34:15.745Z,6
2023-03-17T01:35:30.479Z,6
2023-03-17T01:36:44.020Z,6
2023-03-17T01:39:12.281Z,6.1
2023-03-17T01:41:40.537Z,6
2023-03-17T01:44:08.786Z,6
2023-03-17T01:46:37.047Z,6
2023-03-17T01:49:05.306Z,6
2023-03-17T01:51:33.564Z,5.9
2023-03-17T01:56:30.076Z,5.9
2023-03-17T01:58:58.328Z,5.8
2023-03-17T02:00:13.061Z,5.8
2023-03-17T02:01:26.617Z,5.8
2023-03-17T02:03:54.868Z,5.8
2023-03-17T02:06:23.124Z,5.8
2023-03-17T02:08:51.378Z,5.9
2023-03-17T02:11:19.633Z,5.9
2023-03-17T02:13:47.897Z,5.9
2023-03-17T02:16:16.147Z,5.9
2023-03-17T02:18:44.406Z,5.7
2023-03-17T02:21:12.665Z,5.7
2023-03-17T02:23:40.919Z,5.8
2023-03-17T02:26:09.183Z,5.7
2023-03-17T02:28:37.436Z,5.6
2023-03-17T02:31:05.695Z,5.6
2023-03-17T02:33:33.946Z,5.6
2023-03-17T02:36:02.207Z,5.6
2023-03-17T02:38:30.469Z,5.6
2023-03-17T02:40:58.719Z,5.6
2023-03-17T02:43:26.983Z,5.6
2023-03-17T02:45:55.239Z,5.6
2023-03-17T02:48:23.488Z,5.6
2023-03-17T02:49:38.240Z,5.7
2023-03-17T02:50:51.788Z,5.6
2023-03-17T02:53:20.038Z,5.5
2023-03-17T02:58:16.556Z,5.5
2023-03-17T03:00:44.816Z,5.6
2023-03-17T03:03:13.071Z,5.5
2023-03-17T03:05:41.322Z,5.6
2023-03-17T03:10:37.839Z,5.6
2023-03-17T03:13:06.100Z,5.6
2023-03-17T03:14:20.829Z,5.5
2023-03-17T03:15:34.377Z,5.6
2023-03-17T03:18:02.632Z,5.5
2023-03-17T03:20:30.885Z,5.5
2023-03-17T03:22:59.150Z,5.4
2023-03-17T03:25:27.401Z,5.5
2023-03-17T03:30:23.916Z,5.5
2023-03-17T03:32:52.176Z,5.5
2023-03-17T03:35:20.432Z,5.5
2023-03-17T03:37:48.690Z,5.5
2023-03-17T03:39:03.426Z,5.5
2023-03-17T03:40:16.963Z,5.5
2023-03-17T03:42:45.221Z,5.5
2023-03-17T03:45:13.479Z,5.4
2023-03-17T03:47:41.735Z,5.5
2023-03-17T03:50:09.990Z,5.5
2023-03-17T03:52:38.255Z,5.4
2023-03-17T03:55:06.511Z,5.4
2023-03-17T03:57:34.763Z,5.4
2023-03-17T04:02:31.279Z,5.3
2023-03-17T04:03:46.008Z,5.3
2023-03-17T04:04:59.557Z,5.2
2023-03-17T04:07:27.810Z,5.3
2023-03-17T04:09:56.068Z,5.3
2023-03-17T04:12:24.328Z,5.2
2023-03-17T04:14:52.587Z,5.3
2023-03-17T04:17:20.839Z,5.4
2023-03-17T04:19:49.099Z,5.3
2023-03-17T04:22:17.359Z,5.2
2023-03-17T04:24:45.614Z,5.2
2023-03-17T04:27:13.866Z,5.1
2023-03-17T04:28:28.598Z,5.1
2023-03-17T04:32:10.639Z,5.1
2023-03-17T04:34:38.895Z,5.2
2023-03-17T04:37:07.151Z,5.3
2023-03-17T04:39:35.409Z,5.3
2023-03-17T04:42:03.660Z,5.2
2023-03-17T04:44:31.919Z,5.3
2023-03-17T04:47:00.177Z,5.3
2023-03-17T04:49:28.440Z,5.3
2023-03-17T04:51:56.691Z,5.3
2023-03-17T04:53:11.425Z,5.3
2023-03-17T04:54:24.970Z,5.2
2023-03-17T04:56:53.228Z,5.2
2023-03-17T04:59:21.486Z,5.3
2023-03-17T05:04:18.002Z,5.3
2023-03-17T05:06:46.261Z,5.2
2023-03-17T05:09:14.517Z,5.3
2023-03-17T05:11:42.769Z,5.3
2023-03-17T05:14:11.031Z,5.3
2023-03-17T05:16:39.287Z,5.3
2023-03-17T05:17:54.016Z,5.2
2023-03-17T05:19:07.559Z,5.3
2023-03-17T05:21:35.818Z,5.3
2023-03-17T05:24:04.070Z,5.3
2023-03-17T05:26:32.329Z,5.3
2023-03-17T05:29:00.589Z,5.3
2023-03-17T05:31:28.848Z,5.4
2023-03-17T05:36:25.356Z,5.4
2023-03-17T05:38:53.614Z,5.4
2023-03-17T05:41:21.868Z,5.3
2023-03-17T05:42:36.603Z,5.4
2023-03-17T05:43:50.150Z,5.3
2023-03-17T05:46:18.406Z,5.3
2023-03-17T05:48:46.659Z,5.3
2023-03-17T05:51:14.921Z,5.3
2023-03-17T05:53:43.180Z,5.3
2023-03-17T05:56:11.429Z,5.2
2023-03-17T05:58:39.695Z,5.3
2023-03-17T06:01:07.946Z,5.3
2023-03-17T06:03:36.206Z,5.3
2023-03-17T06:07:19.196Z,5.3
2023-03-17T06:08:32.744Z,5.3
2023-03-17T06:11:00.993Z,5.3
2023-03-17T06:13:29.259Z,5.3
2023-03-17T06:15:57.516Z,5.3
2023-03-17T06:18:25.766Z,5.3
2023-03-17T06:20:54.027Z,5.5
2023-03-17T06:23:22.283Z,5.6
2023-03-17T06:25:50.537Z,5.6
2023-03-17T06:28:18.791Z,5.7
2023-03-17T06:30:47.048Z,5.6
2023-03-17T06:32:01.783Z,5.7
2023-03-17T06:33:15.325Z,5.7
2023-03-17T06:38:11.843Z,5.7
2023-03-17T06:40:40.098Z,5.8
2023-03-17T06:43:08.358Z,5.8
2023-03-17T06:45:36.616Z,5.9
2023-03-17T06:48:04.865Z,5.9
2023-03-17T06:50:33.126Z,5.9
2023-03-17T06:53:01.384Z,6
2023-03-17T06:55:29.637Z,6.3
2023-03-17T06:56:44.372Z,7.4
2023-03-17T06:57:57.916Z,8.1
2023-03-17T07:00:26.179Z,8.9
2023-03-17T07:02:54.430Z,9.7
2023-03-17T07:05:22.691Z,10.4
2023-03-17T07:10:19.201Z,10.4
2023-03-17T07:12:47.455Z,10.9
2023-03-17T07:15:15.720Z,10.6
2023-03-17T07:17:43.977Z,9
2023-03-17T07:20:12.225Z,8.3
2023-03-17T07:21:26.960Z,7.9
2023-03-17T07:22:40.506Z,7.8
2023-03-17T07:25:08.760Z,7.6
2023-03-17T07:27:37.016Z,7.6
2023-03-17T07:30:05.272Z,7.8
2023-03-17T07:32:33.531Z,7.6
2023-03-17T07:35:01.794Z,7.4
2023-03-17T07:37:30.049Z,7.5
2023-03-17T07:42:26.565Z,7.6
2023-03-17T07:44:54.816Z,7.6
2023-03-17T07:46:09.550Z,7.6
2023-03-17T07:47:23.090Z,7.6
2023-03-17T07:49:51.356Z,7.6
2023-03-17T07:52:19.614Z,7.7
2023-03-17T07:54:47.866Z,7.7
2023-03-17T07:57:16.123Z,7.8
2023-03-17T07:59:44.379Z,7.9
2023-03-17T08:02:12.639Z,8.1
2023-03-17T08:04:40.893Z,8.2
2023-03-17T08:07:09.156Z,8.3
2023-03-17T08:09:37.407Z,9.1
2023-03-17T08:12:05.665Z,9.9
2023-03-17T08:14:33.921Z,9.4
2023-03-17T08:17:02.183Z,10
2023-03-17T08:19:30.438Z,10.1
2023-03-17T08:21:58.691Z,9.7
2023-03-17T08:24:26.951Z,9.6
2023-03-17T08:26:55.206Z,9.5
2023-03-17T08:29:23.463Z,10
2023-03-17T08:31:51.722Z,10.2
2023-03-17T08:34:19.982Z,10.3
2023-03-17T08:35:34.730Z,10.3
2023-03-17T08:36:48.276Z,10
2023-03-17T08:39:16.530Z,9.9
2023-03-17T08:44:13.044Z,9.8
2023-03-17T08:46:41.296Z,9.9
2023-03-17T08:49:09.560Z,9.8
2023-03-17T08:51:37.808Z,10
2023-03-17T08:54:06.070Z,10.3
2023-03-17T08:56:34.322Z,10.5
2023-03-17T08:59:02.580Z,10.9
2023-03-17T09:00:17.312Z,11.1
2023-03-17T09:01:30.856Z,11.3
2023-03-17T09:03:59.113Z,11.2
2023-03-17T09:06:27.371Z,10.9
2023-03-17T09:08:55.633Z,10.8
2023-03-17T09:11:23.888Z,10.6
2023-03-17T09:16:20.394Z,10.2
2023-03-17T09:18:48.654Z,10
2023-03-17T09:21:16.914Z,10.1
2023-03-17T09:23:45.175Z,10.5
2023-03-17T09:24:59.903Z,10.9
2023-03-17T09:26:13.443Z,11.1
2023-03-17T09:28:41.700Z,11.2
2023-03-17T09:31:09.955Z,10.8
2023-03-17T09:33:38.214Z,10.9
2023-03-17T09:36:06.474Z,10.7
2023-03-17T09:38:34.727Z,10.6
2023-03-17T09:41:02.983Z,10.8
2023-03-17T09:43:31.241Z,11
2023-03-17T09:48:27.752Z,11.3
2023-03-17T09:49:42.486Z,12.1
2023-03-17T09:50:56.034Z,12.3
2023-03-17T09:53:24.284Z,12.3
2023-03-17T09:55:52.548Z,12.3
2023-03-17T09:58:20.806Z,12.4
2023-03-17T10:00:49.056Z,12.3
2023-03-17T10:03:17.317Z,12.4
2023-03-17T10:05:45.575Z,12.8
2023-03-17T10:08:13.831Z,12.6
2023-03-17T10:10:42.085Z,12.8
2023-03-17T10:13:10.339Z,13.5
2023-03-17T10:14:25.074Z,14.5
2023-03-17T10:18:07.104Z,15.2
2023-03-17T10:20:35.367Z,15.6
2023-03-17T10:23:03.624Z,15.8
2023-03-17T10:25:31.876Z,16.4
2023-03-17T10:28:00.134Z,17.1
2023-03-17T10:30:28.392Z,17.3
2023-03-17T10:32:56.650Z,17.4
2023-03-17T10:35:24.901Z,16.9
2023-03-17T10:37:53.160Z,15
2023-03-17T10:39:07.895Z,14
2023-03-17T10:40:21.432Z,13.7
2023-03-17T10:42:49.693Z,13.7
2023-03-17T10:45:17.944Z,13.5
2023-03-17T10:50:14.464Z,13.5
2023-03-17T10:52:42.719Z,13.4
2023-03-17T10:55:10.977Z,13.4
2023-03-17T10:57:39.235Z,13.2
2023-03-17T11:00:07.492Z,13.3
2023-03-17T11:02:35.743Z,13.3
2023-03-17T11:03:50.479Z,13.5
2023-03-17T11:05:04.019Z,13.6
2023-03-17T11:07:32.283Z,13.5
2023-03-17T11:10:00.538Z,13.7
2023-03-17T11:12:28.795Z,13.8
2023-03-17T11:14:57.052Z,13.7
2023-03-17T11:17:25.304Z,13.7
2023-03-17T11:22:21.823Z,13.8
2023-03-17T11:24:50.073Z,14.3
2023-03-17T11:27:18.335Z,14
2023-03-17T11:28:33.067Z,14.2
2023-03-17T11:29:46.615Z,14.1
2023-03-17T11:32:14.864Z,14.1
2023-03-17T11:34:43.127Z,14
2023-03-17T11:37:11.380Z,14.2
2023-03-17T11:39:39.637Z,14.3
2023-03-17T11:42:07.897Z,14.3
2023-03-17T11:44:36.157Z,14.3
2023-03-17T11:47:04.405Z,14.4
2023-03-17T11:49:32.669Z,14.5
2023-03-17T11:53:15.661Z,14.6
2023-03-17T11:54:29.201Z,14.9
2023-03-17T11:56:57.461Z,14.8
2023-03-17T11:59:25.716Z,14.8
2023-03-17T12:01:53.971Z,14.9
2023-03-17T12:04:22.230Z,15
2023-03-17T12:06:50.490Z,15.2
2023-03-17T12:09:18.742Z,15.1
2023-03-17T12:11:46.997Z,15.2
2023-03-17T12:14:15.256Z,15.4
2023-03-17T12:16:43.512Z,15.6
2023-03-17T12:17:58.244Z,15.8
2023-03-17T12:19:11.787Z,15.8
2023-03-17T12:24:08.307Z,15.7
2023-03-17T12:26:36.561Z,15.8
2023-03-17T12:29:04.812Z,15.7
2023-03-17T12:31:33.075Z,15.7
2023-03-17T12:34:01.332Z,15.7
2023-03-17T12:36:29.581Z,15.7
2023-03-17T12:38:57.845Z,15.8
2023-03-17T12:41:26.094Z,15.6
2023-03-17T12:42:40.830Z,15.8
2023-03-17T12:43:54.374Z,15.8
2023-03-17T12:46:22.628Z,15.8
2023-03-17T12:48:50.883Z,15.8
2023-03-17T12:51:19.143Z,15.8
2023-03-17T12:56:15.661Z,15.8
2023-03-17T12:58:43.914Z,15.8
2023-03-17T13:01:12.167Z,15.8
2023-03-17T13:03:40.422Z,15.9
2023-03-17T13:06:08.678Z,15.9
2023-03-17T13:07:23.418Z,15.8
2023-03-17T13:08:36.962Z,15.8
2023-03-17T13:11:05.217Z,15.8
2023-03-17T13:13:33.475Z,15.9
2023-03-17T13:16:01.727Z,16.1
2023-03-17T13:18:29.979Z,16.2
2023-03-17T13:20:58.237Z,16.3
2023-03-17T13:23:26.495Z,16.6
2023-03-17T13:28:23.012Z,16.7
2023-03-17T13:30:51.266Z,16.8
2023-03-17T13:32:05.997Z,16.8
2023-03-17T13:33:19.546Z,16.7
2023-03-17T13:35:47.801Z,16.7
2023-03-17T13:38:16.051Z,16.8
2023-03-17T13:40:44.316Z,17
2023-03-17T13:43:12.566Z,16.9
2023-03-17T13:45:40.823Z,17
2023-03-17T13:48:09.087Z,17.1
2023-03-17T13:50:37.340Z,17.3
2023-03-17T13:53:05.598Z,17.1
2023-03-17T13:55:33.857Z,17
2023-03-17T13:58:02.113Z,17.1
2023-03-17T14:00:30.369Z,17
2023-03-17T14:02:58.630Z,16.9
2023-03-17T14:05:26.882Z,17
2023-03-17T14:07:55.186Z,17
2023-03-17T14:10:23.397Z,16.9
2023-03-17T14:12:51.654Z,17
2023-03-17T14:15:19.908Z,17.1
2023-03-17T14:17:48.171Z,17.3
2023-03-17T14:20:16.423Z,17.2
2023-03-17T14:21:31.176Z,17.2
2023-03-17T14:22:44.717Z,17.1
2023-03-17T14:25:12.973Z,17.1
2023-03-17T14:30:09.489Z,17.2
2023-03-17T14:32:37.748Z,17.2
2023-03-17T14:35:06.007Z,17.4
2023-03-17T14:37:34.263Z,17.2
2023-03-17T14:40:02.520Z,17.2
2023-03-17T14:42:30.770Z,17.2
2023-03-17T14:44:59.035Z,17.2
2023-03-17T14:46:13.767Z,17.2
2023-03-17T14:47:27.303Z,17.3
2023-03-17T14:49:55.565Z,17.3
2023-03-17T14:52:23.817Z,17.4
2023-03-17T14:54:52.077Z,17.4
2023-03-17T14:57:20.336Z,17.5
2023-03-17T15:02:16.850Z,17.4
2023-03-17T15:04:45.110Z,17.3
2023-03-17T15:07:13.362Z,17.1
2023-03-17T15:09:41.622Z,17
2023-03-17T15:10:56.347Z,16.9
2023-03-17T15:12:09.899Z,16.9
2023-03-17T15:14:38.156Z,17
2023-03-17T15:17:06.410Z,17.1
2023-03-17T15:19:34.665Z,17.1
2023-03-17T15:22:02.921Z,16.9
2023-03-17T15:24:31.176Z,17.1
2023-03-17T15:26:59.437Z,17.1
2023-03-17T15:29:27.696Z,17.2
2023-03-17T15:34:24.203Z,17.2
2023-03-17T15:35:38.939Z,17.1
2023-03-17T15:36:52.487Z,17.2
2023-03-17T15:39:20.737Z,17.2
2023-03-17T15:41:49.001Z,17
2023-03-17T15:44:17.258Z,17.1
2023-03-17T15:46:45.510Z,17
2023-03-17T15:49:13.763Z,16.9
2023-03-17T15:51:42.022Z,16.8
2023-03-17T15:54:10.278Z,16.8
2023-03-17T15:56:38.541Z,16.8
2023-03-17T15:59:06.792Z,16.9
2023-03-17T16:00:21.530Z,17
2023-03-17T16:04:03.556Z,16.9
2023-03-17T16:06:31.820Z,16.6
2023-03-17T16:09:00.069Z,16.6
2023-03-17T16:11:28.327Z,16.7
2023-03-17T16:13:56.593Z,16.4
2023-03-17T16:16:24.843Z,16.5
2023-03-17T16:18:53.105Z,16.6
2023-03-17T16:21:21.360Z,16.5
2023-03-17T16:23:49.617Z,16.6
2023-03-17T16:25:04.351Z,16.7
2023-03-17T16:26:17.896Z,16.8
2023-03-17T16:28:46.153Z,16.8
2023-03-17T16:31:14.401Z,16.7
2023-03-17T16:36:10.920Z,16.2
2023-03-17T16:38:39.176Z,16.2
2023-03-17T16:41:07.431Z,16.1
2023-03-17T16:43:35.688Z,16.1
2023-03-17T16:46:03.940Z,16.1
2023-03-17T16:48:32.200Z,16
2023-03-17T16:49:46.933Z,15.9
2023-03-17T16:51:00.471Z,16
2023-03-17T16:53:28.733Z,15.8
2023-03-17T16:55:56.993Z,15.6
2023-03-17T16:58:25.240Z,15.5
2023-03-17T17:00:53.504Z,15.4
2023-03-17T17:03:21.754Z,15.2
2023-03-17T17:08:18.272Z,15
2023-03-17T17:10:46.530Z,14.7
2023-03-17T17:13:14.781Z,14.7
2023-03-17T17:14:29.518Z,14.8
2023-03-17T17:18:11.315Z,14.7
2023-03-17T17:20:39.574Z,14.6
2023-03-17T17:23:07.828Z,14.6
2023-03-17T17:25:36.091Z,14.5
2023-03-17T17:28:04.342Z,14.6
2023-03-17T17:30:32.600Z,14.7
2023-03-17T17:33:00.859Z,14.8
2023-03-17T17:35:29.123Z,14.6
2023-03-17T17:39:12.102Z,14.4
2023-03-17T17:40:25.644Z,14.4
2023-03-17T17:42:53.905Z,14.5
2023-03-17T17:45:22.164Z,14.6
2023-03-17T17:47:50.422Z,14.6
2023-03-17T17:50:18.680Z,14.7
2023-03-17T17:52:46.936Z,14.6
2023-03-17T17:55:15.188Z,14.8
2023-03-17T17:57:43.448Z,14.8
2023-03-17T18:00:11.702Z,14.7
2023-03-17T18:02:39.962Z,14.5
2023-03-17T18:03:54.699Z,14.5
2023-03-17T18:05:08.242Z,14.5
2023-03-17T18:10:04.755Z,14.4
2023-03-17T18:12:33.008Z,14.2
2023-03-17T18:15:01.270Z,14.2
2023-03-17T18:17:29.524Z,14.3
2023-03-17T18:19:57.785Z,14.4
2023-03-17T18:22:26.045Z,14.2
2023-03-17T18:24:54.298Z,14.2
2023-03-17T18:27:22.554Z,14.3
2023-03-17T18:28:37.291Z,14.4
2023-03-17T18:29:50.829Z,14.3
2023-03-17T18:32:19.090Z,14.4
2023-03-17T18:34:47.344Z,14.2
2023-03-17T18:37:15.600Z,14.1
2023-03-17T18:42:12.112Z,13.8
2023-03-17T18:44:40.370Z,14
2023-03-17T18:47:08.628Z,14
2023-03-17T18:49:36.882Z,14
2023-03-17T18:52:05.139Z,14
2023-03-17T18:53:19.869Z,14.1
2023-03-17T18:54:33.415Z,14.1
2023-03-17T18:57:01.672Z,14.1
2023-03-17T18:59:29.925Z,13.9
2023-03-17T19:01:58.188Z,13.5
2023-03-17T19:04:26.444Z,13.6
2023-03-17T19:06:54.695Z,13.8
2023-03-17T19:09:22.958Z,13.2
2023-03-17T19:14:19.465Z,13
2023-03-17T19:16:47.723Z,13.2
2023-03-17T19:18:02.454Z,13.1
2023-03-17T19:19:16.003Z,13.3
2023-03-17T19:21:44.262Z,13.4
2023-03-17T19:24:12.510Z,13.3
2023-03-17T19:26:40.768Z,13.1
2023-03-17T19:29:09.024Z,13.3
2023-03-17T19:31:37.282Z,12.9
2023-03-17T19:34:05.542Z,12.8
2023-03-17T19:36:33.793Z,12.8
2023-03-17T19:39:02.053Z,12.8
2023-03-17T19:41:30.313Z,12.7
2023-03-17T19:43:58.567Z,12.9
2023-03-17T19:46:26.823Z,13.2
2023-03-17T19:48:55.080Z,13.3
2023-03-17T19:51:23.348Z,12.7
2023-03-17T19:53:51.594Z,12.5
2023-03-17T19:56:19.848Z,12.4
2023-03-17T19:58:48.103Z,12.4
2023-03-17T20:01:16.360Z,12.6
2023-03-17T20:03:44.618Z,12.8
2023-03-17T20:06:12.879Z,13
2023-03-17T20:07:27.628Z,13.2
2023-03-17T20:08:41.173Z,13.3
2023-03-17T20:11:09.425Z,13.2
2023-03-17T20:16:05.939Z,12.9
2023-03-17T20:18:34.203Z,12.5
2023-03-17T20:21:02.458Z,12.5
2023-03-17T20:23:30.713Z,12.7
2023-03-17T20:25:58.968Z,12.8
2023-03-17T20:28:27.223Z,12.7
2023-03-17T20:30:55.486Z,12.5
2023-03-17T20:32:10.219Z,12.3
2023-03-17T20:33:23.755Z,12.4
2023-03-17T20:35:52.011Z,12.6
2023-03-17T20:38:20.277Z,12.2
2023-03-17T20:40:48.531Z,12
2023-03-17T20:43:16.781Z,11.9
2023-03-17T20:48:13.297Z,12.1
2023-03-17T20:50:41.551Z,12.3
2023-03-17T20:53:09.815Z,12.3
2023-03-17T20:55:38.071Z,12.3
2023-03-17T20:56:52.803Z,12.5
2023-03-17T20:58:06.342Z,12.5
2023-03-17T21:00:34.603Z,12.3
2023-03-17T21:03:02.854Z,12.2
2023-03-17T21:05:31.119Z,12.1
2023-03-17T21:07:59.372Z,11.8
2023-03-17T21:10:27.630Z,11.7
2023-03-17T21:12:55.883Z,11.8
2023-03-17T21:15:24.146Z,11.7
2023-03-17T21:20:20.660Z,11.7
2023-03-17T21:21:35.388Z,11.7
2023-03-17T21:22:48.934Z,11.8
2023-03-17T21:25:17.192Z,11.7
2023-03-17T21:27:45.450Z,11.9
2023-03-17T21:30:13.698Z,11.9
2023-03-17T21:32:41.961Z,11.9
2023-03-17T21:35:10.219Z,12
2023-03-17T21:37:38.475Z,11.8
2023-03-17T21:40:06.726Z,11.8
2023-03-17T21:42:34.991Z,11.6
2023-03-17T21:45:03.241Z,11.7
2023-03-17T21:46:17.972Z,11.7
2023-03-17T21:50:00.013Z,11.8
2023-03-17T21:52:28.267Z,11.8
2023-03-17T21:54:56.523Z,11.9
2023-03-17T21:57:24.779Z,11.8
2023-03-17T21:59:53.040Z,11.8
2023-03-17T22:02:21.292Z,11.6
2023-03-17T22:04:49.552Z,11.7
2023-03-17T22:07:17.811Z,11.7
2023-03-17T22:09:46.068Z,11.8
2023-03-17T22:11:00.798Z,11.8
2023-03-17T22:12:14.339Z,11.8
2023-03-17T22:14:42.602Z,11.9
2023-03-17T22:17:10.861Z,11.8
2023-03-17T22:22:07.367Z,11.7
2023-03-17T22:24:35.629Z,11.9
2023-03-17T22:27:03.879Z,11.9
2023-03-17T22:29:32.141Z,11.9
2023-03-17T22:32:00.402Z,11.9
2023-03-17T22:34:28.651Z,11.9
2023-03-17T22:35:43.389Z,11.9
2023-03-17T22:36:56.927Z,11.8
2023-03-17T22:39:25.191Z,11.8
2023-03-17T22:41:53.452Z,11.6
2023-03-17T22:44:21.707Z,11.5
2023-03-17T22:46:49.960Z,11.4
2023-03-17T22:49:18.223Z,11.6
2023-03-17T22:54:14.730Z,11.5
2023-03-17T22:56:42.988Z,11.5
2023-03-17T22:59:11.243Z,11.6
2023-03-17T23:00:25.978Z,11.7
2023-03-17T23:01:39.519Z,11.7
2023-03-17T23:04:07.776Z,11.6
2023-03-17T23:06:36.036Z,11.7
2023-03-17T23:09:04.291Z,11.6
2023-03-17T23:11:32.547Z,11.6
2023-03-17T23:14:00.805Z,11.6
2023-03-17T23:16:29.070Z,11.5
2023-03-17T23:18:57.321Z,11.4
2023-03-17T23:21:25.583Z,11.5
2023-03-17T23:25:08.570Z,11.5
2023-03-17T23:26:22.109Z,11.6
2023-03-17T23:28:50.366Z,11.6
2023-03-17T23:31:18.628Z,11.4
2023-03-17T23:33:46.888Z,11.3
2023-03-17T23:36:15.142Z,11.3
2023-03-17T23:38:43.403Z,11.4
2023-03-17T23:41:11.664Z,11.4
2023-03-17T23:43:39.909Z,11.4
2023-03-17T23:46:08.169Z,11.4
2023-03-17T23:48:36.425Z,11.4
2023-03-17T23:49:51.159Z,11.5
2023-03-17T23:51:04.707Z,11.4
2023-03-17T23:56:01.213Z,11.4
2023-03-17T23:58:29.479Z,11.4
